createdAt,value
2023-01-30T00:01:00.518Z,101442.41
2023-01-30T00:03:03.541Z,101442.41
2023-01-30T00:05:07.100Z,101442.19
2023-01-30T00:07:10.084Z,101443.94
2023-01-30T00:09:14.662Z,101453.06
2023-01-30T00:11:20.500Z,101460.38
2023-01-30T00:13:23.586Z,101461.47
2023-01-30T00:15:26.422Z,101456.09
2023-01-30T00:17:29.175Z,101456.53
2023-01-30T00:19:31.986Z,101460.19
2023-01-30T00:21:34.850Z,101455.38
2023-01-30T00:23:38.867Z,101460.13
2023-01-30T00:25:41.807Z,101456.25
2023-01-30T00:27:46.013Z,101437.19
2023-01-30T00:29:57.709Z,101425.22
2023-01-30T00:32:07.026Z,101438.72
2023-01-30T00:34:09.941Z,101426.41
2023-01-30T00:36:12.776Z,101420.63
2023-01-30T00:38:15.863Z,101424.06
2023-01-30T00:40:19.260Z,101424.63
2023-01-30T00:42:39.706Z,101435.00
2023-01-30T00:45:01.510Z,101437.13
2023-01-30T00:47:09.087Z,101425.84
2023-01-30T00:49:12.328Z,101437.69
2023-01-30T00:51:15.103Z,101440.38
2023-01-30T00:53:18.295Z,101433.19
2023-01-30T00:55:21.055Z,101426.16
2023-01-30T00:57:23.891Z,101412.09
2023-01-30T00:59:26.975Z,101415.06
2023-01-30T01:01:31.213Z,101401.88
2023-01-30T01:03:34.029Z,101397.69
2023-01-30T01:05:37.012Z,101389.53
2023-01-30T01:07:39.936Z,101376.72
2023-01-30T01:09:43.370Z,101376.59
2023-01-30T01:11:46.141Z,101374.06
2023-01-30T01:13:49.862Z,101356.41
2023-01-30T01:15:52.603Z,101359.28
2023-01-30T01:17:57.165Z,101352.09
2023-01-30T01:19:59.970Z,101358.00
2023-01-30T01:22:02.842Z,101351.88
2023-01-30T01:24:06.293Z,101357.69
2023-01-30T01:26:09.925Z,101359.06
2023-01-30T01:28:12.743Z,101346.06
2023-01-30T01:30:15.899Z,101349.38
2023-01-30T01:32:21.337Z,101343.22
2023-01-30T01:34:25.607Z,101365.63
2023-01-30T01:36:52.245Z,101374.09
2023-01-30T01:38:52.321Z,101372.59
2023-01-30T01:41:03.316Z,101350.75
2023-01-30T01:43:16.866Z,101336.84
2023-01-30T01:45:23.096Z,101340.09
2023-01-30T01:47:26.381Z,101341.47
2023-01-30T01:49:33.320Z,101348.34
2023-01-30T01:51:39.806Z,101339.81
2023-01-30T01:53:48.210Z,101328.59
2023-01-30T01:55:55.502Z,101335.38
2023-01-30T01:58:03.101Z,101332.63
2023-01-30T02:00:11.417Z,101330.06
2023-01-30T02:02:18.268Z,101336.47
2023-01-30T02:04:46.798Z,101330.91
2023-01-30T02:06:51.027Z,101318.19
2023-01-30T02:08:58.096Z,101320.16
2023-01-30T02:11:06.230Z,101316.81
2023-01-30T02:13:09.122Z,101307.53
2023-01-30T02:15:12.723Z,101300.81
2023-01-30T02:17:15.600Z,101307.72
2023-01-30T02:19:26.781Z,101306.66
2023-01-30T02:22:08.834Z,101303.34
2023-01-30T02:24:30.908Z,101293.97
2023-01-30T02:26:56.909Z,101297.41
2023-01-30T02:29:26.929Z,101291.22
2023-01-30T02:31:42.828Z,101285.91
2023-01-30T02:33:58.058Z,101290.00
2023-01-30T02:36:10.511Z,101291.97
2023-01-30T02:38:31.928Z,101279.38
2023-01-30T02:40:43.057Z,101273.34
2023-01-30T02:42:52.763Z,101273.47
2023-01-30T02:45:02.773Z,101271.88
2023-01-30T02:47:11.640Z,101267.72
2023-01-30T02:49:19.566Z,101276.91
2023-01-30T02:51:25.125Z,101277.78
2023-01-30T02:53:32.577Z,101291.97
2023-01-30T02:55:36.360Z,101294.78
2023-01-30T02:57:39.143Z,101292.44
2023-01-30T02:59:47.769Z,101296.25
2023-01-30T03:02:15.670Z,101290.38
2023-01-30T03:04:43.845Z,101277.94
2023-01-30T03:07:03.983Z,101300.66
2023-01-30T03:09:17.577Z,101300.22
2023-01-30T03:11:25.312Z,101296.09
2023-01-30T03:13:37.544Z,101293.97
2023-01-30T03:15:44.355Z,101288.19
2023-01-30T03:17:49.320Z,101289.56
2023-01-30T03:19:54.669Z,101292.03
2023-01-30T03:21:57.581Z,101284.88
2023-01-30T03:24:00.735Z,101278.78
2023-01-30T03:26:06.466Z,101282.53
2023-01-30T03:28:10.708Z,101280.19
2023-01-30T03:30:14.809Z,101271.81
2023-01-30T03:32:17.746Z,101268.25
2023-01-30T03:34:22.003Z,101271.91
2023-01-30T03:36:25.551Z,101274.16
2023-01-30T03:38:29.331Z,101275.56
2023-01-30T03:40:32.614Z,101269.53
2023-01-30T03:42:35.554Z,101271.50
2023-01-30T03:44:38.394Z,101275.88
2023-01-30T03:46:41.132Z,101278.41
2023-01-30T03:48:43.953Z,101276.44
2023-01-30T03:50:50.073Z,101275.38
2023-01-30T03:52:52.900Z,101272.72
2023-01-30T03:54:57.311Z,101281.59
2023-01-30T03:57:00.721Z,101280.03
2023-01-30T03:59:03.610Z,101281.97
2023-01-30T04:01:14.271Z,101279.00
2023-01-30T04:03:17.252Z,101268.56
2023-01-30T04:05:20.329Z,101271.59
2023-01-30T04:07:32.317Z,101273.22
2023-01-30T04:09:35.147Z,101255.19
2023-01-30T04:11:39.051Z,101251.13
2023-01-30T04:13:42.004Z,101235.09
2023-01-30T04:15:46.381Z,101226.41
2023-01-30T04:18:14.821Z,101228.38
2023-01-30T04:20:26.659Z,101234.09
2023-01-30T04:22:33.004Z,101231.34
2023-01-30T04:24:35.748Z,101238.34
2023-01-30T04:26:39.091Z,101246.50
2023-01-30T04:28:44.574Z,101248.69
2023-01-30T04:30:48.999Z,101251.03
2023-01-30T04:33:17.861Z,101266.19
2023-01-30T04:35:20.625Z,101252.81
2023-01-30T04:37:23.811Z,101260.09
2023-01-30T04:39:28.208Z,101243.94
2023-01-30T04:41:31.019Z,101236.66
2023-01-30T04:43:36.975Z,101227.31
2023-01-30T04:46:00.036Z,101229.22
2023-01-30T04:48:02.929Z,101239.16
2023-01-30T04:50:10.528Z,101224.88
2023-01-30T04:52:13.779Z,101213.56
2023-01-30T04:54:16.679Z,101215.91
2023-01-30T04:56:20.855Z,101204.56
2023-01-30T04:58:25.523Z,101207.75
2023-01-30T05:00:28.896Z,101203.50
2023-01-30T05:02:35.965Z,101195.34
2023-01-30T05:04:38.847Z,101195.91
2023-01-30T05:06:41.671Z,101194.94
2023-01-30T05:08:46.801Z,101180.63
2023-01-30T05:10:49.689Z,101177.78
2023-01-30T05:12:53.808Z,101186.56
2023-01-30T05:14:57.128Z,101181.84
2023-01-30T05:16:59.951Z,101193.16
2023-01-30T05:19:02.768Z,101180.63
2023-01-30T05:21:07.273Z,101181.81
2023-01-30T05:23:10.161Z,101184.38
2023-01-30T05:25:13.016Z,101191.97
2023-01-30T05:27:15.840Z,101182.59
2023-01-30T05:29:19.964Z,101180.31
2023-01-30T05:31:22.935Z,101180.63
2023-01-30T05:33:25.784Z,101179.88
2023-01-30T05:35:28.593Z,101162.63
2023-01-30T05:37:31.376Z,101162.91
2023-01-30T05:39:34.289Z,101160.06
2023-01-30T05:41:37.121Z,101168.91
2023-01-30T05:43:40.212Z,101164.50
2023-01-30T05:45:44.398Z,101164.59
2023-01-30T05:47:53.590Z,101170.28
2023-01-30T05:49:57.630Z,101183.66
2023-01-30T05:52:00.412Z,101192.84
2023-01-30T05:54:03.231Z,101193.63
2023-01-30T05:56:06.811Z,101186.44
2023-01-30T05:58:09.821Z,101182.28
2023-01-30T06:00:13.746Z,101180.69
2023-01-30T06:02:17.851Z,101185.41
2023-01-30T06:04:20.644Z,101177.16
2023-01-30T06:06:24.110Z,101177.00
2023-01-30T06:08:26.847Z,101170.47
2023-01-30T06:10:29.619Z,101169.00
2023-01-30T06:12:32.358Z,101171.28
2023-01-30T06:14:35.201Z,101173.16
2023-01-30T06:16:38.160Z,101170.50
2023-01-30T06:18:42.441Z,101173.03
2023-01-30T06:20:49.025Z,101167.53
2023-01-30T06:22:51.853Z,101159.47
2023-01-30T06:24:54.657Z,101163.78
2023-01-30T06:26:57.387Z,101153.44
2023-01-30T06:29:00.155Z,101161.66
2023-01-30T06:31:03.118Z,101157.69
2023-01-30T06:33:06.359Z,101164.56
2023-01-30T06:35:10.978Z,101153.97
2023-01-30T06:37:13.810Z,101153.16
2023-01-30T06:39:16.610Z,101152.34
2023-01-30T06:41:19.387Z,101162.31
2023-01-30T06:43:22.308Z,101174.41
2023-01-30T06:45:25.121Z,101180.25
2023-01-30T06:47:27.969Z,101175.22
2023-01-30T06:49:30.905Z,101164.09
2023-01-30T06:51:35.045Z,101172.13
2023-01-30T06:53:38.007Z,101162.34
2023-01-30T06:55:40.845Z,101139.72
2023-01-30T06:57:44.247Z,101129.72
2023-01-30T06:59:47.050Z,101135.53
2023-01-30T07:01:49.841Z,101126.66
2023-01-30T07:03:52.633Z,101128.22
2023-01-30T07:05:55.527Z,101127.06
2023-01-30T07:07:59.651Z,101114.16
2023-01-30T07:10:08.425Z,101117.19
2023-01-30T07:12:12.122Z,101129.84
2023-01-30T07:14:15.111Z,101132.59
2023-01-30T07:16:18.147Z,101142.59
2023-01-30T07:18:20.959Z,101149.53
2023-01-30T07:20:23.905Z,101129.13
2023-01-30T07:22:27.001Z,101118.97
2023-01-30T07:24:31.118Z,101126.75
2023-01-30T07:26:34.021Z,101104.91
2023-01-30T07:28:36.861Z,101110.28
2023-01-30T07:30:39.755Z,101105.81
2023-01-30T07:32:42.566Z,101108.06
2023-01-30T07:34:45.421Z,101110.63
2023-01-30T07:36:48.229Z,101115.75
2023-01-30T07:38:51.027Z,101119.06
2023-01-30T07:40:55.147Z,101133.94
2023-01-30T07:42:59.374Z,101126.75
2023-01-30T07:45:02.099Z,101135.91
2023-01-30T07:47:04.973Z,101130.28
2023-01-30T07:49:08.894Z,101123.88
2023-01-30T07:51:11.679Z,101104.88
2023-01-30T07:53:17.475Z,101106.25
2023-01-30T07:55:20.677Z,101114.25
2023-01-30T07:57:24.970Z,101108.00
2023-01-30T07:59:27.774Z,101107.13
2023-01-30T08:01:30.584Z,101096.06
2023-01-30T08:03:33.400Z,101103.47
2023-01-30T08:05:36.325Z,101113.25
2023-01-30T08:07:39.145Z,101112.16
2023-01-30T08:09:42.050Z,101123.41
2023-01-30T08:11:44.917Z,101116.47
2023-01-30T08:13:49.048Z,101121.03
2023-01-30T08:15:51.822Z,101123.88
2023-01-30T08:17:56.158Z,101128.03
2023-01-30T08:19:58.939Z,101123.41
2023-01-30T08:22:01.790Z,101118.78
2023-01-30T08:24:05.120Z,101117.69
2023-01-30T08:26:07.900Z,101118.75
2023-01-30T08:28:10.721Z,101107.97
2023-01-30T08:30:15.392Z,101101.91
2023-01-30T08:32:18.174Z,101101.22
2023-01-30T08:34:20.948Z,101098.13
2023-01-30T08:36:23.703Z,101089.31
2023-01-30T08:38:26.607Z,101090.88
2023-01-30T08:40:29.438Z,101091.06
2023-01-30T08:42:32.282Z,101085.16
2023-01-30T08:44:35.116Z,101093.53
2023-01-30T08:46:40.392Z,101083.28
2023-01-30T08:48:49.879Z,101087.00
2023-01-30T08:50:53.962Z,101090.81
2023-01-30T08:52:57.351Z,101105.06
2023-01-30T08:55:00.161Z,101104.81
2023-01-30T08:57:02.929Z,101105.59
2023-01-30T08:59:07.706Z,101106.13
2023-01-30T09:01:10.558Z,101103.75
2023-01-30T09:03:15.694Z,101102.66
2023-01-30T09:05:18.968Z,101099.66
2023-01-30T09:07:22.031Z,101093.13
2023-01-30T09:09:24.879Z,101094.69
2023-01-30T09:11:27.789Z,101089.13
2023-01-30T09:13:31.190Z,101087.34
2023-01-30T09:15:35.236Z,101076.00
2023-01-30T09:17:38.324Z,101071.06
2023-01-30T09:19:42.520Z,101075.41
2023-01-30T09:21:45.318Z,101063.28
2023-01-30T09:23:48.113Z,101068.31
2023-01-30T09:25:50.923Z,101063.44
2023-01-30T09:27:53.757Z,101069.47
2023-01-30T09:29:56.803Z,101047.88
2023-01-30T09:31:59.728Z,101042.53
2023-01-30T09:34:02.597Z,101046.25
2023-01-30T09:36:08.073Z,101048.03
2023-01-30T09:38:10.878Z,101058.78
2023-01-30T09:40:16.771Z,101060.91
2023-01-30T09:42:38.181Z,101064.81
2023-01-30T09:45:11.205Z,101056.88
2023-01-30T09:47:16.730Z,101056.88
2023-01-30T09:49:31.423Z,101066.13
2023-01-30T09:51:44.239Z,101072.75
2023-01-30T09:54:12.368Z,101074.84
2023-01-30T09:56:15.277Z,101063.31
2023-01-30T09:58:21.546Z,101065.41
2023-01-30T10:00:29.580Z,101070.53
2023-01-30T10:02:42.115Z,101083.56
2023-01-30T10:05:00.550Z,101088.38
2023-01-30T10:07:17.325Z,101090.63
2023-01-30T10:09:34.266Z,101089.72
2023-01-30T10:11:53.432Z,101080.66
2023-01-30T10:14:11.350Z,101072.59
2023-01-30T10:16:19.658Z,101072.38
2023-01-30T10:18:46.028Z,101060.91
2023-01-30T10:20:59.470Z,101054.84
2023-01-30T10:23:20.821Z,101049.84
2023-01-30T10:25:30.836Z,101053.69
2023-01-30T10:27:37.520Z,101059.41
2023-01-30T10:29:45.158Z,101068.66
2023-01-30T10:31:51.555Z,101070.03
2023-01-30T10:33:59.130Z,101080.53
2023-01-30T10:36:06.209Z,101069.63
2023-01-30T10:38:17.195Z,101075.56
2023-01-30T10:40:25.110Z,101086.47
2023-01-30T10:42:32.795Z,101086.16
2023-01-30T10:44:35.649Z,101087.19
2023-01-30T10:46:56.596Z,101089.03
2023-01-30T10:49:03.337Z,101085.53
2023-01-30T10:51:16.477Z,101092.44
2023-01-30T10:53:26.967Z,101083.75
2023-01-30T10:55:38.613Z,101073.16
2023-01-30T10:57:51.062Z,101052.28
2023-01-30T11:00:02.345Z,101058.13
2023-01-30T11:02:20.714Z,101064.03
2023-01-30T11:04:30.487Z,101070.16
2023-01-30T11:06:35.840Z,101077.94
2023-01-30T11:08:40.117Z,101064.19
2023-01-30T11:10:42.943Z,101068.16
2023-01-30T11:12:46.683Z,101066.63
2023-01-30T11:14:59.495Z,101070.41
2023-01-30T11:17:03.164Z,101053.66
2023-01-30T11:19:19.559Z,101049.53
2023-01-30T11:21:34.895Z,101063.19
2023-01-30T11:23:46.474Z,101072.84
2023-01-30T11:26:05.538Z,101056.94
2023-01-30T11:28:17.227Z,101043.28
2023-01-30T11:30:22.446Z,101053.81
2023-01-30T11:32:27.863Z,101038.47
2023-01-30T11:34:30.941Z,101053.81
2023-01-30T11:36:35.775Z,101051.16
2023-01-30T11:38:57.844Z,101054.22
2023-01-30T11:41:17.201Z,101050.59
2023-01-30T11:43:20.433Z,101059.25
2023-01-30T11:45:26.831Z,101055.81
2023-01-30T11:47:32.034Z,101036.34
2023-01-30T11:49:46.246Z,101038.78
2023-01-30T11:51:55.728Z,101031.88
2023-01-30T11:54:01.812Z,101033.06
2023-01-30T11:56:15.758Z,101033.63
2023-01-30T11:58:19.286Z,101043.34
2023-01-30T12:00:25.028Z,101032.34
2023-01-30T12:02:32.499Z,101030.56
2023-01-30T12:04:35.487Z,101022.84
2023-01-30T12:06:40.464Z,101035.78
2023-01-30T12:08:44.395Z,101034.59
2023-01-30T12:10:50.206Z,101043.75
2023-01-30T12:12:56.370Z,101044.25
2023-01-30T12:15:11.710Z,101027.72
2023-01-30T12:17:21.448Z,101021.53
2023-01-30T12:19:40.808Z,101025.38
2023-01-30T12:21:50.966Z,101032.13
2023-01-30T12:24:01.388Z,101023.03
2023-01-30T12:26:11.168Z,101011.16
2023-01-30T12:28:23.690Z,101011.78
2023-01-30T12:30:33.367Z,101010.72
2023-01-30T12:32:36.401Z,101003.72
2023-01-30T12:34:39.369Z,101007.41
2023-01-30T12:36:48.729Z,101012.84
2023-01-30T12:38:58.935Z,101009.97
2023-01-30T12:41:17.975Z,101013.22
2023-01-30T12:43:36.840Z,101021.06
2023-01-30T12:45:48.445Z,101016.06
2023-01-30T12:48:09.759Z,101019.06
2023-01-30T12:50:40.695Z,101011.75
2023-01-30T12:53:00.030Z,101020.41
2023-01-30T12:55:20.241Z,101023.19
2023-01-30T12:57:34.856Z,101031.13
2023-01-30T12:59:50.497Z,101032.75
2023-01-30T13:02:07.007Z,101026.34
2023-01-30T13:04:21.878Z,101032.34
2023-01-30T13:06:49.451Z,101037.31
2023-01-30T13:09:06.893Z,101038.50
2023-01-30T13:11:28.909Z,101043.78
2023-01-30T13:13:42.570Z,101039.75
2023-01-30T13:15:53.350Z,101049.38
2023-01-30T13:18:14.540Z,101043.41
2023-01-30T13:20:36.966Z,101045.56
2023-01-30T13:22:45.556Z,101054.97
2023-01-30T13:24:59.159Z,101046.75
2023-01-30T13:27:07.833Z,101041.03
2023-01-30T13:29:16.629Z,101052.25
2023-01-30T13:31:24.010Z,101043.94
2023-01-30T13:33:31.664Z,101039.22
2023-01-30T13:35:38.953Z,101046.31
2023-01-30T13:37:42.124Z,101038.78
2023-01-30T13:39:48.800Z,101044.22
2023-01-30T13:41:59.346Z,101043.22
2023-01-30T13:44:16.641Z,101048.50
2023-01-30T13:46:25.244Z,101052.25
2023-01-30T13:48:40.665Z,101058.34
2023-01-30T13:50:50.444Z,101061.53
2023-01-30T13:53:01.344Z,101059.09
2023-01-30T13:55:15.875Z,101064.69
2023-01-30T13:57:26.781Z,101055.41
2023-01-30T13:59:51.033Z,101060.09
2023-01-30T14:02:19.140Z,101062.31
2023-01-30T14:04:45.643Z,101061.22
2023-01-30T14:06:48.742Z,101056.31
2023-01-30T14:08:55.002Z,101058.44
2023-01-30T14:10:58.718Z,101059.81
2023-01-30T14:13:07.032Z,101060.16
2023-01-30T14:15:24.080Z,101056.25
2023-01-30T14:17:28.731Z,101068.28
2023-01-30T14:19:39.243Z,101078.34
2023-01-30T14:21:55.612Z,101072.38
2023-01-30T14:24:01.316Z,101070.63
2023-01-30T14:26:04.567Z,101077.03
2023-01-30T14:28:50.832Z,101080.41
2023-01-30T14:30:55.141Z,101074.31
2023-01-30T14:33:00.522Z,101073.63
2023-01-30T14:35:21.639Z,101074.50
2023-01-30T14:37:48.132Z,101078.47
2023-01-30T14:39:54.269Z,101074.56
2023-01-30T14:42:21.770Z,101071.84
2023-01-30T14:44:58.525Z,101067.69
2023-01-30T14:47:01.435Z,101067.41
2023-01-30T14:49:34.037Z,101063.78
2023-01-30T14:51:44.143Z,101059.75
2023-01-30T14:53:56.914Z,101055.00
2023-01-30T14:56:02.329Z,101053.09
2023-01-30T14:58:05.978Z,101051.75
2023-01-30T15:00:19.526Z,101035.38
2023-01-30T15:02:27.026Z,101038.94
2023-01-30T15:04:34.673Z,101037.03
2023-01-30T15:06:38.280Z,101049.56
2023-01-30T15:08:43.471Z,101062.72
2023-01-30T15:10:57.659Z,101046.28
2023-01-30T15:13:31.666Z,101059.84
2023-01-30T15:15:41.975Z,101071.16
2023-01-30T15:18:07.892Z,101077.94
2023-01-30T15:20:30.173Z,101099.28
2023-01-30T15:22:41.419Z,101108.72
2023-01-30T15:25:11.741Z,101111.88
2023-01-30T15:27:23.214Z,101114.75
2023-01-30T15:29:53.611Z,101124.06
2023-01-30T15:31:57.722Z,101121.06
2023-01-30T15:34:00.648Z,101123.81
2023-01-30T15:36:19.524Z,101130.69
2023-01-30T15:38:29.001Z,101143.44
2023-01-30T15:40:32.708Z,101145.78
2023-01-30T15:42:35.550Z,101147.56
2023-01-30T15:44:50.497Z,101152.56
2023-01-30T15:47:04.370Z,101156.69
2023-01-30T15:49:24.163Z,101153.22
2023-01-30T15:51:31.865Z,101156.53
2023-01-30T15:53:38.010Z,101159.31
2023-01-30T15:55:44.361Z,101156.97
2023-01-30T15:57:50.970Z,101155.81
2023-01-30T15:59:55.380Z,101169.75
2023-01-30T16:02:04.531Z,101174.03
2023-01-30T16:04:26.793Z,101187.50
2023-01-30T16:06:33.392Z,101190.00
2023-01-30T16:08:37.516Z,101191.44
2023-01-30T16:10:45.764Z,101206.81
2023-01-30T16:12:49.975Z,101214.44
2023-01-30T16:15:03.124Z,101212.09
2023-01-30T16:17:12.754Z,101226.53
2023-01-30T16:19:26.401Z,101222.66
2023-01-30T16:21:34.740Z,101231.03
2023-01-30T16:23:41.592Z,101236.25
2023-01-30T16:25:48.189Z,101237.47
2023-01-30T16:27:53.538Z,101238.75
2023-01-30T16:29:59.030Z,101240.91
2023-01-30T16:32:02.119Z,101248.22
2023-01-30T16:34:06.252Z,101259.97
2023-01-30T16:36:33.966Z,101254.91
2023-01-30T16:38:40.514Z,101262.38
2023-01-30T16:40:46.044Z,101267.78
2023-01-30T16:42:57.040Z,101274.13
2023-01-30T16:45:40.313Z,101278.31
2023-01-30T16:47:43.312Z,101273.50
2023-01-30T16:49:49.193Z,101277.03
2023-01-30T16:52:01.760Z,101274.13
2023-01-30T16:54:05.797Z,101279.19
2023-01-30T16:56:11.017Z,101279.34
2023-01-30T16:58:18.710Z,101283.63
2023-01-30T17:00:24.500Z,101283.78
2023-01-30T17:02:34.535Z,101275.59
2023-01-30T17:04:41.346Z,101281.78
2023-01-30T17:06:44.514Z,101282.75
2023-01-30T17:08:52.150Z,101278.78
2023-01-30T17:10:56.273Z,101281.34
2023-01-30T17:13:00.328Z,101280.81
2023-01-30T17:15:26.792Z,101293.03
2023-01-30T17:17:29.699Z,101290.69
2023-01-30T17:19:32.488Z,101287.81
2023-01-30T17:21:48.734Z,101292.00
2023-01-30T17:23:55.737Z,101285.47
2023-01-30T17:25:58.795Z,101286.84
2023-01-30T17:28:01.619Z,101286.50
2023-01-30T17:30:13.592Z,101288.44
2023-01-30T17:32:17.224Z,101297.16
2023-01-30T17:34:22.605Z,101297.94
2023-01-30T17:36:28.452Z,101293.59
2023-01-30T17:38:31.212Z,101300.69
2023-01-30T17:40:37.588Z,101311.69
2023-01-30T17:42:40.334Z,101315.47
2023-01-30T17:44:43.156Z,101322.72
2023-01-30T17:46:47.161Z,101330.06
2023-01-30T17:48:50.865Z,101327.25
2023-01-30T17:50:53.676Z,101324.03
2023-01-30T17:52:56.520Z,101334.03
2023-01-30T17:54:59.286Z,101342.63
2023-01-30T17:57:05.881Z,101345.44
2023-01-30T17:59:14.560Z,101348.81
2023-01-30T18:01:18.958Z,101356.88
2023-01-30T18:03:21.884Z,101360.88
2023-01-30T18:05:25.109Z,101349.63
2023-01-30T18:07:30.249Z,101351.53
2023-01-30T18:09:33.041Z,101352.03
2023-01-30T18:11:37.499Z,101358.47
2023-01-30T18:13:43.494Z,101353.31
2023-01-30T18:15:46.278Z,101365.22
2023-01-30T18:17:50.650Z,101362.06
2023-01-30T18:19:54.998Z,101374.13
2023-01-30T18:21:58.372Z,101381.69
2023-01-30T18:24:01.394Z,101381.59
2023-01-30T18:26:04.327Z,101388.88
2023-01-30T18:28:10.668Z,101391.75
2023-01-30T18:30:17.971Z,101396.53
2023-01-30T18:32:21.114Z,101409.31
2023-01-30T18:34:24.089Z,101414.19
2023-01-30T18:36:26.946Z,101420.22
2023-01-30T18:38:30.915Z,101421.72
2023-01-30T18:40:33.687Z,101429.84
2023-01-30T18:42:36.605Z,101417.44
2023-01-30T18:44:39.391Z,101422.03
2023-01-30T18:46:43.527Z,101423.78
2023-01-30T18:48:47.244Z,101433.28
2023-01-30T18:50:50.059Z,101425.56
2023-01-30T18:52:52.915Z,101425.72
2023-01-30T18:54:55.689Z,101427.19
2023-01-30T18:56:58.478Z,101427.63
2023-01-30T18:59:05.567Z,101431.31
2023-01-30T19:01:13.959Z,101430.22
2023-01-30T19:03:18.575Z,101438.69
2023-01-30T19:05:21.714Z,101437.63
2023-01-30T19:07:24.503Z,101440.34
2023-01-30T19:09:27.736Z,101440.44
2023-01-30T19:11:48.263Z,101443.28
2023-01-30T19:13:51.310Z,101443.63
2023-01-30T19:15:58.819Z,101442.25
2023-01-30T19:18:01.659Z,101443.72
2023-01-30T19:20:12.015Z,101445.50
2023-01-30T19:22:16.670Z,101441.84
2023-01-30T19:24:21.331Z,101442.91
2023-01-30T19:26:26.008Z,101455.22
2023-01-30T19:28:30.622Z,101452.56
2023-01-30T19:30:33.493Z,101459.16
2023-01-30T19:32:36.312Z,101461.97
2023-01-30T19:34:39.151Z,101458.63
2023-01-30T19:36:43.385Z,101463.47
2023-01-30T19:38:48.163Z,101461.31
2023-01-30T19:40:50.916Z,101455.38
2023-01-30T19:42:56.843Z,101454.53
2023-01-30T19:45:02.582Z,101458.91
2023-01-30T19:47:05.453Z,101462.09
2023-01-30T19:49:08.253Z,101466.53
2023-01-30T19:51:13.494Z,101466.00
2023-01-30T19:53:17.782Z,101462.72
2023-01-30T19:55:20.574Z,101468.66
2023-01-30T19:57:23.398Z,101468.72
2023-01-30T19:59:26.292Z,101466.06
2023-01-30T20:01:32.601Z,101470.44
2023-01-30T20:03:36.737Z,101474.69
2023-01-30T20:05:39.597Z,101483.41
2023-01-30T20:07:42.471Z,101484.34
2023-01-30T20:09:46.677Z,101487.00
2023-01-30T20:11:49.438Z,101501.66
2023-01-30T20:13:53.191Z,101507.69
2023-01-30T20:15:57.719Z,101499.97
2023-01-30T20:18:00.552Z,101492.53
2023-01-30T20:20:03.649Z,101488.94
2023-01-30T20:22:08.168Z,101489.59
2023-01-30T20:24:12.674Z,101495.38
2023-01-30T20:26:18.654Z,101497.69
2023-01-30T20:28:21.522Z,101500.09
2023-01-30T20:30:24.554Z,101492.84
2023-01-30T20:32:27.388Z,101502.34
2023-01-30T20:34:30.349Z,101504.75
2023-01-30T20:36:33.627Z,101505.47
2023-01-30T20:38:38.587Z,101512.38
2023-01-30T20:40:41.238Z,101510.53
2023-01-30T20:42:45.512Z,101516.19
2023-01-30T20:44:48.347Z,101518.75
2023-01-30T20:46:51.169Z,101521.50
2023-01-30T20:48:55.028Z,101526.03
2023-01-30T20:50:57.817Z,101535.53
2023-01-30T20:53:00.677Z,101534.56
2023-01-30T20:55:03.895Z,101534.38
2023-01-30T20:57:06.863Z,101533.66
2023-01-30T20:59:12.627Z,101537.78
2023-01-30T21:01:18.339Z,101540.59
2023-01-30T21:03:24.511Z,101545.13
2023-01-30T21:05:27.360Z,101547.69
2023-01-30T21:07:30.209Z,101548.75
2023-01-30T21:09:33.094Z,101555.69
2023-01-30T21:11:35.999Z,101547.69
2023-01-30T21:13:39.456Z,101555.16
2023-01-30T21:15:43.646Z,101555.09
2023-01-30T21:17:47.407Z,101565.28
2023-01-30T21:19:50.266Z,101560.88
2023-01-30T21:21:55.069Z,101563.25
2023-01-30T21:23:59.544Z,101568.03
2023-01-30T21:26:08.857Z,101583.31
2023-01-30T21:28:11.760Z,101579.69
2023-01-30T21:30:14.768Z,101586.81
2023-01-30T21:32:19.408Z,101593.44
2023-01-30T21:34:22.398Z,101596.00
2023-01-30T21:36:25.660Z,101597.63
2023-01-30T21:38:46.401Z,101598.75
2023-01-30T21:41:09.953Z,101605.78
2023-01-30T21:43:15.422Z,101605.44
2023-01-30T21:45:20.722Z,101603.81
2023-01-30T21:47:25.307Z,101615.03
2023-01-30T21:49:28.249Z,101617.63
2023-01-30T21:51:31.997Z,101613.94
2023-01-30T21:53:34.820Z,101619.72
2023-01-30T21:55:37.886Z,101612.44
2023-01-30T21:57:40.711Z,101616.00
2023-01-30T21:59:43.520Z,101612.72
2023-01-30T22:01:46.631Z,101613.34
2023-01-30T22:03:50.806Z,101620.16
2023-01-30T22:05:53.640Z,101618.56
2023-01-30T22:07:56.376Z,101615.38
2023-01-30T22:10:01.455Z,101623.72
2023-01-30T22:12:04.566Z,101619.97
2023-01-30T22:14:07.386Z,101613.69
2023-01-30T22:16:13.199Z,101620.16
2023-01-30T22:18:16.034Z,101612.16
2023-01-30T22:20:20.426Z,101614.13
2023-01-30T22:22:25.323Z,101617.84
2023-01-30T22:24:27.956Z,101620.31
2023-01-30T22:26:31.089Z,101618.66
2023-01-30T22:28:35.242Z,101623.16
2023-01-30T22:30:38.567Z,101616.34
2023-01-30T22:32:41.375Z,101625.66
2023-01-30T22:34:44.139Z,101626.75
2023-01-30T22:36:48.707Z,101629.56
2023-01-30T22:38:51.531Z,101632.94
2023-01-30T22:41:01.945Z,101632.94
2023-01-30T22:43:04.743Z,101639.59
2023-01-30T22:45:08.659Z,101631.72
2023-01-30T22:47:11.562Z,101635.41
2023-01-30T22:49:14.382Z,101648.19
2023-01-30T22:51:19.213Z,101651.03
2023-01-30T22:53:24.130Z,101658.75
2023-01-30T22:55:26.767Z,101657.97
2023-01-30T22:57:29.562Z,101649.38
2023-01-30T22:59:32.285Z,101653.53
2023-01-30T23:01:37.134Z,101652.47
2023-01-30T23:03:40.457Z,101656.84
2023-01-30T23:05:43.375Z,101656.00
2023-01-30T23:07:46.249Z,101654.63
2023-01-30T23:09:50.608Z,101643.78
2023-01-30T23:12:13.212Z,101650.69
2023-01-30T23:14:18.020Z,101648.78
2023-01-30T23:16:22.984Z,101649.56
2023-01-30T23:18:43.082Z,101652.81
2023-01-30T23:20:45.903Z,101657.28
2023-01-30T23:22:51.866Z,101658.16
2023-01-30T23:24:56.048Z,101652.47
2023-01-30T23:26:58.780Z,101654.09
2023-01-30T23:29:03.061Z,101663.66
2023-01-30T23:31:07.460Z,101659.69
2023-01-30T23:33:10.229Z,101657.03
2023-01-30T23:35:13.022Z,101654.09
2023-01-30T23:37:15.911Z,101656.56
2023-01-30T23:39:18.719Z,101651.34
2023-01-30T23:41:24.813Z,101648.66
2023-01-30T23:43:28.572Z,101645.72
2023-01-30T23:45:31.371Z,101655.16
2023-01-30T23:47:34.170Z,101650.53
2023-01-30T23:49:37.707Z,101654.19
2023-01-30T23:51:44.410Z,101648.22
2023-01-30T23:53:48.027Z,101651.78
2023-01-30T23:55:51.844Z,101644.94
2023-01-30T23:57:56.031Z,101648.28
2023-01-30T23:59:58.870Z,101644.59
